createdAt,value
2023-09-28T02:14:17.907Z,87.94
2023-09-28T02:16:46.973Z,87.93
2023-09-28T02:19:17.360Z,87.73
2023-09-28T02:21:47.643Z,87.67
2023-09-28T02:24:16.466Z,87.79
2023-09-28T02:26:45.412Z,87.90
2023-09-28T02:29:14.330Z,88.11
2023-09-28T02:31:44.460Z,88.12
2023-09-28T02:34:16.352Z,88.02
2023-09-28T02:36:45.393Z,88.49
2023-09-28T02:39:15.253Z,88.24
2023-09-28T02:41:44.176Z,88.31
2023-09-28T02:44:15.312Z,88.39
2023-09-28T02:46:44.457Z,88.22
2023-09-28T02:49:13.359Z,88.24
2023-09-28T02:51:43.861Z,88.54
2023-09-28T02:54:15.220Z,88.38
2023-09-28T02:56:44.243Z,88.27
2023-09-28T02:59:13.212Z,88.27
2023-09-28T03:01:42.813Z,88.27
2023-09-28T03:04:11.755Z,88.46
2023-09-28T03:06:41.152Z,88.58
2023-09-28T03:09:10.038Z,88.90
2023-09-28T03:11:40.067Z,88.92
2023-09-28T03:14:08.868Z,88.80
2023-09-28T03:16:38.599Z,88.65
2023-09-28T03:19:09.587Z,88.62
2023-09-28T03:21:40.180Z,88.76
2023-09-28T03:24:09.847Z,88.87
2023-09-28T03:26:38.759Z,88.89
2023-09-28T03:29:08.103Z,88.69
2023-09-28T03:31:36.992Z,88.93
2023-09-28T03:34:05.978Z,88.76
2023-09-28T03:36:38.288Z,89.14
2023-09-28T03:39:07.020Z,89.22
2023-09-28T03:41:36.917Z,88.99
2023-09-28T03:44:07.797Z,88.51
2023-09-28T03:46:44.941Z,88.49
2023-09-28T03:49:15.969Z,88.49
2023-09-28T03:51:49.318Z,88.53
2023-09-28T03:54:22.908Z,88.56
2023-09-28T03:56:52.973Z,88.81
2023-09-28T03:59:22.200Z,89.11
2023-09-28T04:01:54.138Z,89.64
2023-09-28T04:04:23.114Z,89.79
2023-09-28T04:06:52.049Z,89.79
2023-09-28T04:09:21.112Z,89.82
2023-09-28T04:11:50.298Z,89.88
2023-09-28T04:14:19.414Z,89.29
2023-09-28T04:16:49.034Z,89.07
2023-09-28T04:19:17.907Z,89.08
2023-09-28T04:21:46.722Z,89.10
2023-09-28T04:24:15.515Z,89.11
2023-09-28T04:26:44.638Z,89.39
2023-09-28T04:29:13.473Z,89.91
2023-09-28T04:31:51.409Z,89.99
2023-09-28T04:34:20.801Z,90.16
2023-09-28T04:36:50.695Z,90.27
2023-09-28T04:39:19.932Z,89.93
2023-09-28T04:41:48.804Z,90.23
2023-09-28T04:44:19.578Z,90.40
2023-09-28T04:46:51.073Z,90.67
2023-09-28T04:49:21.126Z,90.71
2023-09-28T04:51:50.562Z,90.69
2023-09-28T04:54:20.850Z,90.88
2023-09-28T04:56:49.595Z,90.92
2023-09-28T04:59:18.689Z,90.87
2023-09-28T05:01:48.198Z,90.82
2023-09-28T05:04:17.098Z,90.84
2023-09-28T05:06:46.778Z,90.96
2023-09-28T05:09:15.804Z,91.02
2023-09-28T05:11:45.198Z,91.04
2023-09-28T05:14:14.027Z,90.83
2023-09-28T05:16:45.539Z,90.82
2023-09-28T05:19:14.750Z,90.67
2023-09-28T05:21:43.586Z,90.77
2023-09-28T05:24:12.332Z,91.18
2023-09-28T05:26:42.394Z,91.47
2023-09-28T05:29:11.292Z,91.11
2023-09-28T05:31:49.758Z,91.60
2023-09-28T05:34:18.947Z,91.83
2023-09-28T05:36:48.207Z,91.92
2023-09-28T05:39:18.428Z,92.09
2023-09-28T05:41:47.315Z,92.32
2023-09-28T05:44:16.312Z,92.07
2023-09-28T05:46:46.127Z,91.88
2023-09-28T05:49:15.408Z,91.64
2023-09-28T05:51:45.112Z,91.58
2023-09-28T05:54:14.451Z,90.85
2023-09-28T05:56:45.163Z,90.96
2023-09-28T05:59:14.076Z,89.43
2023-09-28T06:01:47.530Z,88.44
2023-09-28T06:04:19.661Z,87.70
2023-09-28T06:06:51.392Z,87.34
2023-09-28T06:09:20.489Z,87.11
2023-09-28T06:11:50.128Z,86.86
2023-09-28T06:14:20.438Z,86.56
2023-09-28T06:16:49.618Z,86.46
2023-09-28T06:19:19.064Z,86.11
2023-09-28T06:21:50.522Z,86.07
2023-09-28T06:24:22.702Z,85.62
2023-09-28T06:26:54.193Z,85.29
2023-09-28T06:29:23.584Z,84.01
2023-09-28T06:31:53.756Z,81.79
2023-09-28T06:34:22.807Z,79.71
2023-09-28T06:36:55.780Z,74.42
2023-09-28T06:39:28.555Z,67.69
2023-09-28T06:42:12.492Z,63.14
2023-09-28T06:44:53.577Z,61.76
2023-09-28T06:47:29.565Z,63.92
2023-09-28T06:50:11.662Z,65.38
2023-09-28T06:52:43.771Z,67.87
2023-09-28T06:55:14.033Z,68.00
2023-09-28T06:57:43.310Z,69.25
2023-09-28T07:00:17.717Z,69.60
2023-09-28T07:02:48.349Z,69.66
2023-09-28T07:05:18.672Z,68.89
2023-09-28T07:07:49.201Z,68.72
2023-09-28T07:10:22.327Z,68.43
2023-09-28T07:12:54.219Z,67.53
2023-09-28T07:15:23.291Z,66.93
2023-09-28T07:17:52.448Z,67.06
2023-09-28T07:20:25.937Z,66.43
2023-09-28T07:22:55.698Z,64.85
2023-09-28T07:25:26.601Z,61.99
2023-09-28T07:27:57.244Z,60.77
2023-09-28T07:30:26.525Z,60.56
2023-09-28T07:32:57.804Z,60.10
2023-09-28T07:35:29.304Z,59.82
2023-09-28T07:37:59.137Z,57.98
2023-09-28T07:40:44.727Z,58.17
2023-09-28T07:43:17.848Z,58.96
2023-09-28T07:45:47.348Z,60.22
2023-09-28T07:48:19.049Z,60.97
2023-09-28T07:50:51.722Z,61.97
2023-09-28T07:53:21.303Z,62.73
2023-09-28T07:55:52.361Z,63.02
2023-09-28T07:58:26.678Z,61.60
2023-09-28T08:00:56.434Z,58.70
2023-09-28T08:03:32.704Z,55.85
2023-09-28T08:06:03.243Z,52.51
2023-09-28T08:08:34.358Z,48.77
2023-09-28T08:11:03.965Z,46.06
2023-09-28T08:13:34.586Z,44.09
2023-09-28T08:16:04.837Z,40.27
2023-09-28T08:18:35.961Z,39.51
2023-09-28T08:21:10.825Z,39.04
2023-09-28T08:23:43.253Z,41.16
2023-09-28T08:26:16.275Z,43.74
2023-09-28T08:28:45.093Z,46.76
2023-09-28T08:31:17.393Z,48.49
2023-09-28T08:33:46.776Z,49.45
2023-09-28T08:36:15.832Z,51.59
2023-09-28T08:38:48.634Z,52.62
2023-09-28T08:41:21.060Z,53.65
2023-09-28T08:43:55.369Z,54.70
2023-09-28T08:46:44.682Z,55.83
2023-09-28T08:49:18.509Z,56.63
2023-09-28T08:51:49.378Z,57.34
2023-09-28T08:54:19.681Z,59.39
2023-09-28T08:56:49.920Z,58.33
2023-09-28T08:59:19.949Z,55.54
2023-09-28T09:01:49.776Z,51.56
2023-09-28T09:04:18.893Z,48.33
2023-09-28T09:06:48.737Z,43.13
2023-09-28T09:09:20.940Z,40.22
2023-09-28T09:11:54.567Z,37.89
2023-09-28T09:14:30.058Z,35.19
2023-09-28T09:16:59.882Z,33.19
2023-09-28T09:19:32.503Z,31.21
2023-09-28T09:22:05.863Z,31.40
2023-09-28T09:24:53.449Z,31.44
2023-09-28T09:27:29.434Z,32.30
2023-09-28T09:29:59.603Z,31.29
2023-09-28T09:32:31.101Z,31.45
2023-09-28T09:35:00.750Z,30.85
2023-09-28T09:37:29.922Z,30.19
2023-09-28T09:40:11.992Z,29.75
2023-09-28T09:42:42.280Z,28.94
2023-09-28T09:45:13.025Z,30.36
2023-09-28T09:47:50.211Z,30.70
2023-09-28T09:50:22.002Z,31.42
2023-09-28T09:52:53.421Z,33.00
2023-09-28T09:55:23.381Z,35.01
2023-09-28T09:57:58.150Z,36.30
2023-09-28T10:00:32.049Z,36.62
2023-09-28T10:03:06.193Z,38.40
2023-09-28T10:05:37.523Z,39.04
2023-09-28T10:08:09.127Z,40.32
2023-09-28T10:10:39.921Z,39.92
2023-09-28T10:13:09.827Z,39.89
2023-09-28T10:15:39.613Z,40.96
2023-09-28T10:18:09.032Z,40.27
2023-09-28T10:20:39.590Z,40.47
2023-09-28T10:23:24.489Z,41.43
2023-09-28T10:25:59.345Z,43.37
2023-09-28T10:28:28.954Z,42.07
2023-09-28T10:31:18.994Z,42.78
2023-09-28T10:34:00.937Z,43.24
2023-09-28T10:36:37.814Z,43.96
2023-09-28T10:39:12.345Z,43.63
2023-09-28T10:41:46.657Z,43.63
2023-09-28T10:44:18.373Z,44.36
2023-09-28T10:46:52.323Z,44.51
2023-09-28T10:49:26.419Z,42.56
2023-09-28T10:51:57.774Z,42.77
2023-09-28T10:54:26.748Z,42.10
2023-09-28T10:56:56.522Z,42.34
2023-09-28T10:59:26.464Z,42.95
2023-09-28T11:01:58.454Z,42.84
2023-09-28T11:04:43.327Z,43.17
2023-09-28T11:07:18.567Z,43.21
2023-09-28T11:09:51.894Z,42.88
2023-09-28T11:12:21.039Z,42.88
2023-09-28T11:14:57.272Z,43.66
2023-09-28T11:17:26.917Z,43.82
2023-09-28T11:19:57.371Z,44.12
2023-09-28T11:22:29.384Z,43.00
2023-09-28T11:24:59.557Z,43.56
2023-09-28T11:27:29.114Z,44.18
2023-09-28T11:29:58.878Z,43.68
2023-09-28T11:32:27.977Z,44.98
2023-09-28T11:34:59.288Z,44.56
2023-09-28T11:37:29.701Z,44.48
2023-09-28T11:40:00.469Z,43.77
2023-09-28T11:42:29.372Z,44.17
2023-09-28T11:45:00.230Z,45.03
2023-09-28T11:47:29.477Z,44.25
2023-09-28T11:49:58.950Z,43.66
2023-09-28T11:52:29.198Z,44.89
2023-09-28T11:54:58.241Z,44.11
2023-09-28T11:57:28.566Z,45.50
2023-09-28T11:59:57.653Z,44.09
2023-09-28T12:02:26.802Z,44.31
2023-09-28T12:04:59.777Z,43.99
2023-09-28T12:07:29.934Z,44.02
2023-09-28T12:10:04.651Z,43.65
2023-09-28T12:12:37.617Z,44.52
2023-09-28T12:15:11.590Z,45.07
2023-09-28T12:17:41.310Z,45.29
2023-09-28T12:20:14.619Z,44.85
2023-09-28T12:22:44.913Z,43.32
2023-09-28T12:25:14.591Z,45.18
2023-09-28T12:27:45.645Z,44.41
2023-09-28T12:30:19.484Z,43.70
2023-09-28T12:32:52.052Z,42.91
2023-09-28T12:35:22.162Z,43.17
2023-09-28T12:37:52.258Z,42.50
2023-09-28T12:40:21.531Z,42.55
2023-09-28T12:42:50.596Z,42.21
2023-09-28T12:45:19.584Z,43.02
2023-09-28T12:47:48.758Z,42.27
2023-09-28T12:50:18.052Z,42.80
2023-09-28T12:52:48.833Z,43.34
2023-09-28T12:55:17.831Z,43.69
2023-09-28T12:57:46.938Z,43.13
2023-09-28T13:00:19.221Z,42.24
2023-09-28T13:02:48.645Z,42.80
2023-09-28T13:05:19.041Z,42.25
2023-09-28T13:07:49.217Z,43.21
2023-09-28T13:10:23.317Z,42.28
2023-09-28T13:12:54.322Z,43.58
2023-09-28T13:15:31.353Z,43.83
2023-09-28T13:18:01.572Z,44.17
2023-09-28T13:20:34.533Z,43.76
2023-09-28T13:23:03.719Z,44.35
2023-09-28T13:25:35.099Z,43.88
2023-09-28T13:28:11.480Z,43.77
2023-09-28T13:30:44.122Z,45.77
2023-09-28T13:33:15.948Z,43.94
2023-09-28T13:35:46.066Z,44.14
2023-09-28T13:38:15.649Z,43.78
2023-09-28T13:40:52.015Z,43.76
2023-09-28T13:43:27.648Z,44.85
2023-09-28T13:45:56.936Z,44.74
2023-09-28T13:48:31.379Z,43.31
2023-09-28T13:51:06.004Z,43.82
2023-09-28T13:53:42.413Z,43.23
2023-09-28T13:56:11.559Z,43.11
2023-09-28T13:58:40.505Z,42.66
2023-09-28T14:01:13.680Z,43.73
2023-09-28T14:03:42.902Z,42.76
2023-09-28T14:06:12.367Z,42.94
2023-09-28T14:08:42.900Z,42.69
2023-09-28T14:11:22.844Z,42.56
2023-09-28T14:13:52.680Z,42.40
2023-09-28T14:16:21.691Z,42.85
2023-09-28T14:18:51.625Z,43.01
2023-09-28T14:21:21.641Z,43.25
2023-09-28T14:23:53.742Z,43.26
2023-09-28T14:26:26.175Z,43.14
2023-09-28T14:28:58.116Z,43.45
2023-09-28T14:31:27.902Z,43.59
2023-09-28T14:33:57.155Z,43.08
2023-09-28T14:36:27.277Z,43.51
2023-09-28T14:39:00.164Z,43.35
2023-09-28T14:41:29.642Z,43.25
2023-09-28T14:44:00.034Z,43.59
2023-09-28T14:46:29.261Z,43.84
2023-09-28T14:48:58.235Z,43.40
2023-09-28T14:51:27.509Z,43.98
2023-09-28T14:53:57.271Z,44.38
2023-09-28T14:56:27.368Z,44.50
2023-09-28T14:59:06.258Z,44.94
2023-09-28T15:01:43.984Z,45.12
2023-09-28T15:04:16.547Z,45.65
2023-09-28T15:06:53.136Z,45.78
2023-09-28T15:09:22.131Z,46.05
2023-09-28T15:12:06.099Z,46.72
2023-09-28T15:14:38.628Z,46.73
2023-09-28T15:17:08.384Z,46.79
2023-09-28T15:19:38.039Z,47.28
2023-09-28T15:22:07.545Z,47.47
2023-09-28T15:24:36.614Z,47.32
2023-09-28T15:27:05.592Z,48.10
2023-09-28T15:29:35.935Z,48.26
2023-09-28T15:32:09.271Z,48.24
2023-09-28T15:34:37.544Z,47.72
2023-09-28T15:37:06.664Z,48.55
2023-09-28T15:39:37.911Z,48.65
2023-09-28T15:42:07.133Z,49.24
2023-09-28T15:44:36.944Z,49.77
2023-09-28T15:47:06.123Z,50.14
2023-09-28T15:49:38.505Z,50.38
2023-09-28T15:52:09.059Z,51.71
2023-09-28T15:54:38.733Z,53.37
2023-09-28T15:57:07.755Z,53.13
2023-09-28T15:59:38.039Z,53.48
2023-09-28T16:02:08.065Z,54.05
2023-09-28T16:04:37.252Z,55.08
2023-09-28T16:07:07.499Z,55.00
2023-09-28T16:09:36.784Z,55.57
2023-09-28T16:12:06.647Z,55.59
2023-09-28T16:14:36.001Z,56.65
2023-09-28T16:17:05.639Z,57.26
2023-09-28T16:19:35.758Z,57.89
2023-09-28T16:22:04.893Z,58.13
2023-09-28T16:24:36.678Z,58.73
2023-09-28T16:27:05.642Z,59.46
2023-09-28T16:29:35.004Z,60.32
2023-09-28T16:32:03.958Z,61.28
2023-09-28T16:34:34.274Z,61.60
2023-09-28T16:37:03.294Z,62.11
2023-09-28T16:39:32.331Z,62.36
2023-09-28T16:42:02.647Z,62.70
2023-09-28T16:44:31.942Z,63.33
2023-09-28T16:47:02.391Z,63.77
2023-09-28T16:49:31.305Z,64.35
2023-09-28T16:52:00.184Z,64.41
2023-09-28T16:54:29.157Z,65.08
2023-09-28T16:56:58.242Z,65.43
2023-09-28T16:59:28.358Z,66.05
2023-09-28T17:02:00.522Z,66.23
2023-09-28T17:04:30.314Z,66.58
2023-09-28T17:07:00.483Z,66.69
2023-09-28T17:09:29.413Z,67.00
2023-09-28T17:11:58.919Z,67.19
2023-09-28T17:14:27.903Z,67.15
2023-09-28T17:16:58.753Z,67.68
2023-09-28T17:19:27.751Z,67.57
2023-09-28T17:21:57.077Z,68.10
2023-09-28T17:24:26.320Z,68.46
2023-09-28T17:26:56.710Z,68.89
2023-09-28T17:29:25.959Z,68.70
2023-09-28T17:31:57.764Z,69.09
2023-09-28T17:34:27.293Z,69.36
2023-09-28T17:36:57.538Z,69.63
2023-09-28T17:39:31.134Z,69.81
2023-09-28T17:42:00.350Z,69.96
2023-09-28T17:44:30.586Z,70.31
2023-09-28T17:47:00.934Z,70.00
2023-09-28T17:49:30.203Z,70.60
2023-09-28T17:51:59.205Z,71.03
2023-09-28T17:54:28.707Z,71.00
2023-09-28T17:56:57.762Z,71.17
2023-09-28T17:59:26.794Z,71.61
2023-09-28T18:02:09.117Z,71.42
2023-09-28T18:04:46.659Z,71.81
2023-09-28T18:07:17.941Z,72.24
2023-09-28T18:09:50.650Z,69.34
2023-09-28T18:12:21.229Z,71.83
2023-09-28T18:14:56.273Z,72.29
2023-09-28T18:24:00.335Z,72.53
2023-09-28T18:26:30.136Z,72.75
2023-09-28T18:31:57.816Z,72.96
2023-09-28T18:34:27.964Z,73.23
2023-09-28T18:37:15.376Z,73.15
2023-09-28T18:39:47.855Z,73.38
2023-09-28T18:42:20.434Z,73.57
2023-09-28T18:44:49.852Z,73.86
2023-09-28T18:47:20.701Z,74.49
2023-09-28T18:49:50.107Z,74.61
2023-09-28T18:52:31.538Z,75.20
2023-09-28T18:55:03.730Z,75.16
2023-09-28T18:57:37.777Z,74.88
2023-09-28T19:00:15.901Z,75.10
2023-09-28T19:02:50.214Z,74.99
2023-09-28T19:05:19.528Z,75.22
2023-09-28T19:07:49.435Z,75.20
2023-09-28T19:10:18.743Z,75.51
2023-09-28T19:12:47.725Z,75.44
2023-09-28T19:15:17.032Z,75.62
2023-09-28T19:17:45.995Z,75.81
2023-09-28T19:20:26.067Z,76.52
2023-09-28T19:22:55.900Z,76.08
2023-09-28T19:25:26.586Z,76.55
2023-09-28T19:27:55.541Z,76.46
2023-09-28T19:30:28.631Z,76.74
2023-09-28T19:32:57.684Z,76.31
2023-09-28T19:35:29.387Z,77.13
2023-09-28T19:37:58.375Z,77.23
2023-09-28T19:40:27.879Z,76.85
2023-09-28T19:43:01.274Z,77.13
2023-09-28T19:45:30.583Z,77.51
2023-09-28T19:48:01.842Z,77.33
2023-09-28T19:50:31.219Z,77.58
2023-09-28T19:53:04.278Z,77.94
2023-09-28T19:55:36.960Z,78.24
2023-09-28T19:58:06.706Z,78.21
2023-09-28T20:00:39.304Z,78.20
2023-09-28T20:03:08.767Z,78.02
2023-09-28T20:05:41.399Z,78.56
2023-09-28T20:08:10.377Z,78.64
2023-09-28T20:10:41.858Z,78.74
2023-09-28T20:13:17.063Z,78.86
2023-09-28T20:15:46.287Z,79.07
2023-09-28T20:18:15.330Z,78.92
2023-09-28T20:20:44.360Z,78.89
2023-09-28T20:23:16.773Z,79.13
2023-09-28T20:25:46.651Z,79.30
2023-09-28T20:28:15.760Z,79.83
2023-09-28T20:30:44.700Z,79.43
2023-09-28T20:33:14.141Z,79.58
2023-09-28T20:35:47.178Z,79.73
2023-09-28T20:38:29.145Z,80.41
2023-09-28T20:40:58.057Z,80.23
2023-09-28T20:43:31.993Z,80.30
2023-09-28T20:46:04.840Z,80.61
2023-09-28T20:48:38.075Z,80.41
2023-09-28T20:51:11.066Z,80.52
2023-09-28T20:53:43.366Z,80.43
2023-09-28T20:56:16.441Z,81.03
2023-09-28T20:58:46.502Z,80.58
2023-09-28T21:01:15.994Z,80.76
2023-09-28T21:03:45.181Z,80.68
2023-09-28T21:06:14.249Z,81.26
2023-09-28T21:08:43.333Z,80.93
2023-09-28T21:11:18.885Z,80.84
2023-09-28T21:13:48.039Z,80.99
2023-09-28T21:16:17.871Z,81.18
2023-09-28T21:18:47.284Z,81.37
2023-09-28T21:21:18.987Z,81.45
2023-09-28T21:23:49.852Z,81.27
2023-09-28T21:26:19.726Z,81.66
2023-09-28T21:28:49.039Z,81.36
2023-09-28T21:31:17.899Z,81.95
2023-09-28T21:33:47.088Z,81.28
2023-09-28T21:36:17.073Z,81.30
2023-09-28T21:38:48.097Z,81.60
2023-09-28T21:41:17.124Z,81.26
2023-09-28T21:43:46.036Z,81.28
2023-09-28T21:46:22.158Z,81.52
2023-09-28T21:48:51.280Z,81.42
2023-09-28T21:51:20.945Z,81.52
2023-09-28T21:53:50.387Z,81.94
2023-09-28T21:56:20.502Z,82.16
2023-09-28T21:58:53.545Z,82.21
2023-09-28T22:01:22.601Z,83.00
2023-09-28T22:03:54.580Z,83.17
2023-09-28T22:06:23.466Z,83.33
2023-09-28T22:08:52.333Z,83.27
2023-09-28T22:11:22.738Z,83.50
2023-09-28T22:13:51.585Z,83.87
2023-09-28T22:16:27.499Z,84.30
2023-09-28T22:18:57.157Z,84.31
2023-09-28T22:21:26.436Z,84.38
2023-09-28T22:23:56.287Z,84.47
2023-09-28T22:26:25.409Z,84.23
2023-09-28T22:28:54.950Z,84.73
2023-09-28T22:31:38.802Z,84.65
2023-09-28T22:34:10.900Z,84.61
2023-09-28T22:36:40.528Z,84.86
2023-09-28T22:39:11.010Z,85.20
2023-09-28T22:41:40.091Z,85.34
2023-09-28T22:44:08.946Z,85.18
2023-09-28T22:46:37.879Z,85.26
2023-09-28T22:49:07.337Z,85.14
2023-09-28T22:51:36.473Z,85.08
2023-09-28T22:54:06.320Z,84.93
2023-09-28T22:56:35.879Z,84.97
2023-09-28T22:59:05.149Z,85.28
2023-09-28T23:01:35.674Z,85.07
2023-09-28T23:04:06.239Z,85.20
2023-09-28T23:06:37.645Z,85.24
2023-09-28T23:09:07.840Z,85.64
2023-09-28T23:11:37.444Z,86.01
2023-09-28T23:14:09.586Z,86.26
2023-09-28T23:16:39.005Z,86.26
2023-09-28T23:19:08.415Z,86.42
2023-09-28T23:21:37.430Z,86.52
2023-09-28T23:24:14.201Z,86.21
2023-09-28T23:26:43.158Z,86.11
2023-09-28T23:29:15.330Z,86.38
2023-09-28T23:31:44.797Z,86.31
2023-09-28T23:34:14.576Z,86.35
2023-09-28T23:36:47.041Z,86.40
2023-09-28T23:39:16.899Z,86.58
2023-09-28T23:41:49.291Z,86.42
2023-09-28T23:44:18.591Z,85.78
2023-09-28T23:46:49.492Z,85.94
2023-09-28T23:49:19.562Z,86.03
2023-09-28T23:51:50.878Z,86.18
2023-09-28T23:54:20.837Z,85.73
2023-09-28T23:56:49.959Z,85.64
2023-09-28T23:59:20.585Z,85.69
